sensor_id;sensor_type;location;lat;lon;timestamp;temperature;humidity
65231;DHT22;51813;40.666;16.602;2022-11-25T00:01:07;16.90;57.30
65231;DHT22;51813;40.666;16.602;2022-11-25T00:03:33;16.90;57.40
65231;DHT22;51813;40.666;16.602;2022-11-25T00:06:21;16.90;57.40
65231;DHT22;51813;40.666;16.602;2022-11-25T00:08:49;16.90;57.30
65231;DHT22;51813;40.666;16.602;2022-11-25T00:11:16;16.90;57.10
65231;DHT22;51813;40.666;16.602;2022-11-25T00:13:43;17.00;57.10
65231;DHT22;51813;40.666;16.602;2022-11-25T00:16:11;17.00;57.20
65231;DHT22;51813;40.666;16.602;2022-11-25T00:18:38;17.00;57.20
65231;DHT22;51813;40.666;16.602;2022-11-25T00:21:07;17.00;57.10
65231;DHT22;51813;40.666;16.602;2022-11-25T00:23:34;16.90;57.20
65231;DHT22;51813;40.666;16.602;2022-11-25T00:26:12;16.90;57.30
65231;DHT22;51813;40.666;16.602;2022-11-25T00:28:39;16.90;57.40
65231;DHT22;51813;40.666;16.602;2022-11-25T00:31:10;16.90;57.40
65231;DHT22;51813;40.666;16.602;2022-11-25T00:33:37;16.80;57.30
65231;DHT22;51813;40.666;16.602;2022-11-25T00:36:05;16.80;57.40
65231;DHT22;51813;40.666;16.602;2022-11-25T00:38:30;16.80;57.40
65231;DHT22;51813;40.666;16.602;2022-11-25T00:40:56;16.80;57.40
65231;DHT22;51813;40.666;16.602;2022-11-25T00:43:40;16.80;57.40
65231;DHT22;51813;40.666;16.602;2022-11-25T00:46:25;16.90;57.40
65231;DHT22;51813;40.666;16.602;2022-11-25T00:48:51;16.90;57.20
65231;DHT22;51813;40.666;16.602;2022-11-25T00:51:16;17.00;57.20
65231;DHT22;51813;40.666;16.602;2022-11-25T00:53:42;17.00;57.20
65231;DHT22;51813;40.666;16.602;2022-11-25T00:56:08;16.90;57.10
65231;DHT22;51813;40.666;16.602;2022-11-25T00:58:41;16.90;57.10
65231;DHT22;51813;40.666;16.602;2022-11-25T01:01:07;16.90;57.20
65231;DHT22;51813;40.666;16.602;2022-11-25T01:03:34;16.80;57.30
65231;DHT22;51813;40.666;16.602;2022-11-25T01:06:07;16.80;57.30
65231;DHT22;51813;40.666;16.602;2022-11-25T01:08:34;16.80;57.30
65231;DHT22;51813;40.666;16.602;2022-11-25T01:11:02;16.80;57.30
65231;DHT22;51813;40.666;16.602;2022-11-25T01:13:28;16.80;57.30
65231;DHT22;51813;40.666;16.602;2022-11-25T01:15:54;16.80;57.30
65231;DHT22;51813;40.666;16.602;2022-11-25T01:18:19;16.80;57.30
65231;DHT22;51813;40.666;16.602;2022-11-25T01:20:45;16.80;57.10
65231;DHT22;51813;40.666;16.602;2022-11-25T01:23:11;16.90;57.20
65231;DHT22;51813;40.666;16.602;2022-11-25T01:25:38;16.90;57.10
65231;DHT22;51813;40.666;16.602;2022-11-25T01:28:04;16.90;57.00
65231;DHT22;51813;40.666;16.602;2022-11-25T01:30:30;16.90;57.00
65231;DHT22;51813;40.666;16.602;2022-11-25T01:32:56;16.90;57.00
65231;DHT22;51813;40.666;16.602;2022-11-25T01:35:21;16.80;57.10
65231;DHT22;51813;40.666;16.602;2022-11-25T01:37:47;16.80;57.10
65231;DHT22;51813;40.666;16.602;2022-11-25T01:40:13;16.80;57.20
65231;DHT22;51813;40.666;16.602;2022-11-25T01:42:46;16.80;57.30
65231;DHT22;51813;40.666;16.602;2022-11-25T01:47:56;16.80;57.40
65231;DHT22;51813;40.666;16.602;2022-11-25T01:50:25;16.70;57.30
65231;DHT22;51813;40.666;16.602;2022-11-25T01:52:54;16.70;57.50
65231;DHT22;51813;40.666;16.602;2022-11-25T01:55:27;16.80;58.00
65231;DHT22;51813;40.666;16.602;2022-11-25T01:58:09;16.80;57.20
65231;DHT22;51813;40.666;16.602;2022-11-25T02:00:37;16.80;57.00
65231;DHT22;51813;40.666;16.602;2022-11-25T02:03:03;16.90;57.00
65231;DHT22;51813;40.666;16.602;2022-11-25T02:05:51;16.90;56.90
65231;DHT22;51813;40.666;16.602;2022-11-25T02:08:19;16.80;56.90
65231;DHT22;51813;40.666;16.602;2022-11-25T02:10:47;16.80;57.00
65231;DHT22;51813;40.666;16.602;2022-11-25T02:13:13;16.80;57.10
65231;DHT22;51813;40.666;16.602;2022-11-25T02:15:39;16.70;57.10
65231;DHT22;51813;40.666;16.602;2022-11-25T02:18:05;16.70;57.10
65231;DHT22;51813;40.666;16.602;2022-11-25T02:20:31;16.70;57.10
65231;DHT22;51813;40.666;16.602;2022-11-25T02:25:42;16.70;57.10
65231;DHT22;51813;40.666;16.602;2022-11-25T02:28:17;16.70;57.10
65231;DHT22;51813;40.666;16.602;2022-11-25T02:30:44;16.70;57.00
65231;DHT22;51813;40.666;16.602;2022-11-25T02:33:10;16.70;57.00
65231;DHT22;51813;40.666;16.602;2022-11-25T02:35:39;16.80;57.00
65231;DHT22;51813;40.666;16.602;2022-11-25T02:38:38;16.80;57.00
65231;DHT22;51813;40.666;16.602;2022-11-25T02:43:41;16.80;57.00
65231;DHT22;51813;40.666;16.602;2022-11-25T02:46:13;16.70;56.90
65231;DHT22;51813;40.666;16.602;2022-11-25T02:48:40;16.70;57.00
65231;DHT22;51813;40.666;16.602;2022-11-25T02:51:08;16.70;57.20
65231;DHT22;51813;40.666;16.602;2022-11-25T02:53:34;16.70;57.10
65231;DHT22;51813;40.666;16.602;2022-11-25T02:55:59;16.70;57.10
65231;DHT22;51813;40.666;16.602;2022-11-25T02:58:25;16.60;57.10
65231;DHT22;51813;40.666;16.602;2022-11-25T03:00:51;16.60;57.10
65231;DHT22;51813;40.666;16.602;2022-11-25T03:03:17;16.70;57.00
65231;DHT22;51813;40.666;16.602;2022-11-25T03:05:43;16.70;57.00
65231;DHT22;51813;40.666;16.602;2022-11-25T03:08:09;16.70;57.00
65231;DHT22;51813;40.666;16.602;2022-11-25T03:10:35;16.70;56.80
65231;DHT22;51813;40.666;16.602;2022-11-25T03:13:01;16.80;57.00
65231;DHT22;51813;40.666;16.602;2022-11-25T03:15:27;16.80;56.70
65231;DHT22;51813;40.666;16.602;2022-11-25T03:17:53;16.70;56.70
65231;DHT22;51813;40.666;16.602;2022-11-25T03:20:19;16.70;56.70
65231;DHT22;51813;40.666;16.602;2022-11-25T03:22:45;16.70;56.80
65231;DHT22;51813;40.666;16.602;2022-11-25T03:25:11;16.60;56.80
65231;DHT22;51813;40.666;16.602;2022-11-25T03:27:38;16.60;56.80
65231;DHT22;51813;40.666;16.602;2022-11-25T03:30:06;16.60;56.90
65231;DHT22;51813;40.666;16.602;2022-11-25T03:32:32;16.60;57.00
65231;DHT22;51813;40.666;16.602;2022-11-25T03:34:58;16.60;56.90
65231;DHT22;51813;40.666;16.602;2022-11-25T03:37:24;16.60;56.90
65231;DHT22;51813;40.666;16.602;2022-11-25T03:39:50;16.60;56.90
65231;DHT22;51813;40.666;16.602;2022-11-25T03:42:15;16.60;56.90
65231;DHT22;51813;40.666;16.602;2022-11-25T03:44:41;16.70;56.80
65231;DHT22;51813;40.666;16.602;2022-11-25T03:47:07;16.70;56.80
65231;DHT22;51813;40.666;16.602;2022-11-25T03:49:32;16.70;56.60
65231;DHT22;51813;40.666;16.602;2022-11-25T03:51:59;16.70;56.60
65231;DHT22;51813;40.666;16.602;2022-11-25T03:54:25;16.70;56.80
65231;DHT22;51813;40.666;16.602;2022-11-25T03:56:50;16.60;56.70
65231;DHT22;51813;40.666;16.602;2022-11-25T03:59:16;16.60;56.80
65231;DHT22;51813;40.666;16.602;2022-11-25T04:01:42;16.60;56.90
65231;DHT22;51813;40.666;16.602;2022-11-25T04:04:07;16.60;56.90
65231;DHT22;51813;40.666;16.602;2022-11-25T04:06:33;16.60;56.90
65231;DHT22;51813;40.666;16.602;2022-11-25T04:09:00;16.50;57.00
65231;DHT22;51813;40.666;16.602;2022-11-25T04:11:25;16.50;57.00
65231;DHT22;51813;40.666;16.602;2022-11-25T04:14:11;16.50;57.40
65231;DHT22;51813;40.666;16.602;2022-11-25T04:16:37;16.60;57.00
65231;DHT22;51813;40.666;16.602;2022-11-25T04:19:02;16.60;56.70
65231;DHT22;51813;40.666;16.602;2022-11-25T04:21:28;16.70;56.90
65231;DHT22;51813;40.666;16.602;2022-11-25T04:23:54;16.70;56.70
65231;DHT22;51813;40.666;16.602;2022-11-25T04:26:20;16.70;56.60
65231;DHT22;51813;40.666;16.602;2022-11-25T04:28:45;16.60;56.60
65231;DHT22;51813;40.666;16.602;2022-11-25T04:31:11;16.60;56.70
65231;DHT22;51813;40.666;16.602;2022-11-25T04:33:36;16.60;56.80
65231;DHT22;51813;40.666;16.602;2022-11-25T04:36:03;16.60;56.80
65231;DHT22;51813;40.666;16.602;2022-11-25T04:38:28;16.50;56.80
65231;DHT22;51813;40.666;16.602;2022-11-25T04:40:54;16.60;56.90
65231;DHT22;51813;40.666;16.602;2022-11-25T04:43:20;16.60;56.80
65231;DHT22;51813;40.666;16.602;2022-11-25T04:45:49;16.50;56.80
65231;DHT22;51813;40.666;16.602;2022-11-25T04:48:15;16.50;57.00
65231;DHT22;51813;40.666;16.602;2022-11-25T04:50:41;16.50;56.80
65231;DHT22;51813;40.666;16.602;2022-11-25T04:53:07;16.60;56.90
65231;DHT22;51813;40.666;16.602;2022-11-25T04:55:32;16.60;56.90
65231;DHT22;51813;40.666;16.602;2022-11-25T04:57:58;16.60;56.80
65231;DHT22;51813;40.666;16.602;2022-11-25T05:00:24;16.70;56.80
65231;DHT22;51813;40.666;16.602;2022-11-25T05:02:49;16.60;56.60
65231;DHT22;51813;40.666;16.602;2022-11-25T05:05:15;16.60;56.70
65231;DHT22;51813;40.666;16.602;2022-11-25T05:07:41;16.60;56.90
65231;DHT22;51813;40.666;16.602;2022-11-25T05:10:07;16.50;56.90
65231;DHT22;51813;40.666;16.602;2022-11-25T05:12:33;16.50;57.00
65231;DHT22;51813;40.666;16.602;2022-11-25T05:14:59;16.50;57.00
65231;DHT22;51813;40.666;16.602;2022-11-25T05:17:28;16.50;57.00
65231;DHT22;51813;40.666;16.602;2022-11-25T05:19:53;16.50;57.10
65231;DHT22;51813;40.666;16.602;2022-11-25T05:22:24;16.40;57.10
65231;DHT22;51813;40.666;16.602;2022-11-25T05:24:50;16.50;57.20
65231;DHT22;51813;40.666;16.602;2022-11-25T05:27:16;16.50;57.00
65231;DHT22;51813;40.666;16.602;2022-11-25T05:29:42;16.60;57.20
65231;DHT22;51813;40.666;16.602;2022-11-25T05:32:09;16.60;57.10
65231;DHT22;51813;40.666;16.602;2022-11-25T05:34:35;16.60;56.90
65231;DHT22;51813;40.666;16.602;2022-11-25T05:37:01;16.60;56.90
65231;DHT22;51813;40.666;16.602;2022-11-25T05:39:27;16.60;56.90
65231;DHT22;51813;40.666;16.602;2022-11-25T05:41:53;16.60;57.10
65231;DHT22;51813;40.666;16.602;2022-11-25T05:44:18;16.50;57.00
65231;DHT22;51813;40.666;16.602;2022-11-25T05:46:45;16.50;57.10
65231;DHT22;51813;40.666;16.602;2022-11-25T05:49:12;16.50;57.10
65231;DHT22;51813;40.666;16.602;2022-11-25T05:51:38;16.50;57.20
65231;DHT22;51813;40.666;16.602;2022-11-25T05:54:03;16.40;57.10
65231;DHT22;51813;40.666;16.602;2022-11-25T05:56:29;16.40;57.20
65231;DHT22;51813;40.666;16.602;2022-11-25T05:58:57;16.40;57.40
65231;DHT22;51813;40.666;16.602;2022-11-25T06:01:23;16.40;57.50
65231;DHT22;51813;40.666;16.602;2022-11-25T06:03:49;16.40;57.10
65231;DHT22;51813;40.666;16.602;2022-11-25T06:06:14;16.50;57.00
65231;DHT22;51813;40.666;16.602;2022-11-25T06:08:40;16.50;56.90
65231;DHT22;51813;40.666;16.602;2022-11-25T06:11:11;16.60;56.90
65231;DHT22;51813;40.666;16.602;2022-11-25T06:13:38;16.50;57.10
65231;DHT22;51813;40.666;16.602;2022-11-25T06:16:10;16.50;57.10
65231;DHT22;51813;40.666;16.602;2022-11-25T06:18:36;16.50;57.10
65231;DHT22;51813;40.666;16.602;2022-11-25T06:21:04;16.50;57.10
65231;DHT22;51813;40.666;16.602;2022-11-25T06:23:30;16.40;57.10
65231;DHT22;51813;40.666;16.602;2022-11-25T06:26:03;16.50;57.20
65231;DHT22;51813;40.666;16.602;2022-11-25T06:28:29;16.40;57.10
65231;DHT22;51813;40.666;16.602;2022-11-25T06:30:55;16.40;57.10
65231;DHT22;51813;40.666;16.602;2022-11-25T06:33:20;16.40;57.00
65231;DHT22;51813;40.666;16.602;2022-11-25T06:35:46;16.40;57.00
65231;DHT22;51813;40.666;16.602;2022-11-25T06:38:12;16.40;56.90
65231;DHT22;51813;40.666;16.602;2022-11-25T06:40:37;16.50;57.10
65231;DHT22;51813;40.666;16.602;2022-11-25T06:43:03;16.60;57.00
65231;DHT22;51813;40.666;16.602;2022-11-25T06:45:30;16.60;57.00
65231;DHT22;51813;40.666;16.602;2022-11-25T06:47:56;16.60;56.90
65231;DHT22;51813;40.666;16.602;2022-11-25T06:50:22;16.50;56.90
65231;DHT22;51813;40.666;16.602;2022-11-25T06:52:47;16.40;57.00
65231;DHT22;51813;40.666;16.602;2022-11-25T06:55:13;16.40;57.20
65231;DHT22;51813;40.666;16.602;2022-11-25T06:57:38;16.40;57.30
65231;DHT22;51813;40.666;16.602;2022-11-25T07:00:05;16.50;57.20
65231;DHT22;51813;40.666;16.602;2022-11-25T07:02:31;16.50;57.20
65231;DHT22;51813;40.666;16.602;2022-11-25T07:04:57;16.40;57.10
65231;DHT22;51813;40.666;16.602;2022-11-25T07:07:22;16.50;57.10
65231;DHT22;51813;40.666;16.602;2022-11-25T07:09:48;16.50;57.10
65231;DHT22;51813;40.666;16.602;2022-11-25T07:12:14;16.40;57.10
65231;DHT22;51813;40.666;16.602;2022-11-25T07:14:39;16.50;57.00
65231;DHT22;51813;40.666;16.602;2022-11-25T07:17:05;16.50;57.10
65231;DHT22;51813;40.666;16.602;2022-11-25T07:19:31;16.50;56.80
65231;DHT22;51813;40.666;16.602;2022-11-25T07:22:00;16.60;56.90
65231;DHT22;51813;40.666;16.602;2022-11-25T07:24:25;16.60;56.90
65231;DHT22;51813;40.666;16.602;2022-11-25T07:26:51;16.60;56.90
65231;DHT22;51813;40.666;16.602;2022-11-25T07:29:17;16.50;57.00
65231;DHT22;51813;40.666;16.602;2022-11-25T07:31:44;16.50;57.00
65231;DHT22;51813;40.666;16.602;2022-11-25T07:34:27;16.50;57.00
65231;DHT22;51813;40.666;16.602;2022-11-25T07:36:53;16.50;57.00
65231;DHT22;51813;40.666;16.602;2022-11-25T07:39:21;16.50;57.10
65231;DHT22;51813;40.666;16.602;2022-11-25T07:41:51;16.50;57.10
65231;DHT22;51813;40.666;16.602;2022-11-25T07:44:17;16.50;57.20
65231;DHT22;51813;40.666;16.602;2022-11-25T07:46:45;16.50;57.30
65231;DHT22;51813;40.666;16.602;2022-11-25T07:49:17;16.50;57.30
65231;DHT22;51813;40.666;16.602;2022-11-25T07:51:50;16.50;57.10
65231;DHT22;51813;40.666;16.602;2022-11-25T07:54:17;16.60;57.30
65231;DHT22;51813;40.666;16.602;2022-11-25T07:56:43;16.60;57.20
65231;DHT22;51813;40.666;16.602;2022-11-25T07:59:15;16.60;57.10
65231;DHT22;51813;40.666;16.602;2022-11-25T08:01:41;16.60;57.10
65231;DHT22;51813;40.666;16.602;2022-11-25T08:04:08;16.60;57.20
65231;DHT22;51813;40.666;16.602;2022-11-25T08:06:38;16.60;57.30
65231;DHT22;51813;40.666;16.602;2022-11-25T08:09:04;16.60;57.50
65231;DHT22;51813;40.666;16.602;2022-11-25T08:11:30;16.50;58.10
65231;DHT22;51813;40.666;16.602;2022-11-25T08:13:58;16.50;58.20
65231;DHT22;51813;40.666;16.602;2022-11-25T08:16:25;16.60;57.90
65231;DHT22;51813;40.666;16.602;2022-11-25T08:19:00;16.70;57.70
65231;DHT22;51813;40.666;16.602;2022-11-25T08:21:26;16.80;57.70
65231;DHT22;51813;40.666;16.602;2022-11-25T08:23:52;16.80;57.60
65231;DHT22;51813;40.666;16.602;2022-11-25T08:26:21;16.90;57.00
65231;DHT22;51813;40.666;16.602;2022-11-25T08:28:47;16.90;56.70
65231;DHT22;51813;40.666;16.602;2022-11-25T08:31:14;17.00;56.70
65231;DHT22;51813;40.666;16.602;2022-11-25T08:33:41;17.00;56.50
65231;DHT22;51813;40.666;16.602;2022-11-25T08:36:07;17.00;56.70
65231;DHT22;51813;40.666;16.602;2022-11-25T08:38:33;17.00;56.40
65231;DHT22;51813;40.666;16.602;2022-11-25T08:40:59;17.10;56.70
65231;DHT22;51813;40.666;16.602;2022-11-25T08:43:25;17.10;56.40
65231;DHT22;51813;40.666;16.602;2022-11-25T08:45:52;17.10;56.30
65231;DHT22;51813;40.666;16.602;2022-11-25T08:48:19;17.10;56.40
65231;DHT22;51813;40.666;16.602;2022-11-25T08:50:51;17.10;56.40
65231;DHT22;51813;40.666;16.602;2022-11-25T08:53:18;17.20;56.40
65231;DHT22;51813;40.666;16.602;2022-11-25T08:55:44;17.20;56.40
65231;DHT22;51813;40.666;16.602;2022-11-25T08:58:10;17.20;56.70
65231;DHT22;51813;40.666;16.602;2022-11-25T09:00:38;17.20;57.00
65231;DHT22;51813;40.666;16.602;2022-11-25T09:03:04;17.20;56.70
65231;DHT22;51813;40.666;16.602;2022-11-25T09:05:30;17.10;56.60
65231;DHT22;51813;40.666;16.602;2022-11-25T09:08:01;17.10;56.60
65231;DHT22;51813;40.666;16.602;2022-11-25T09:10:27;17.10;56.50
65231;DHT22;51813;40.666;16.602;2022-11-25T09:12:53;17.10;56.50
65231;DHT22;51813;40.666;16.602;2022-11-25T09:15:19;17.10;56.50
65231;DHT22;51813;40.666;16.602;2022-11-25T09:17:44;17.20;56.50
65231;DHT22;51813;40.666;16.602;2022-11-25T09:20:10;17.20;56.50
65231;DHT22;51813;40.666;16.602;2022-11-25T09:22:36;17.20;56.50
65231;DHT22;51813;40.666;16.602;2022-11-25T09:25:02;17.20;56.50
65231;DHT22;51813;40.666;16.602;2022-11-25T09:27:29;17.20;56.50
65231;DHT22;51813;40.666;16.602;2022-11-25T09:29:54;17.20;56.50
65231;DHT22;51813;40.666;16.602;2022-11-25T09:32:20;17.20;56.50
65231;DHT22;51813;40.666;16.602;2022-11-25T09:34:46;17.20;56.50
65231;DHT22;51813;40.666;16.602;2022-11-25T09:37:12;17.20;56.60
65231;DHT22;51813;40.666;16.602;2022-11-25T09:39:37;17.20;56.60
65231;DHT22;51813;40.666;16.602;2022-11-25T09:44:55;17.20;56.80
65231;DHT22;51813;40.666;16.602;2022-11-25T09:53:37;17.30;57.40
65231;DHT22;51813;40.666;16.602;2022-11-25T09:56:15;17.40;57.70
65231;DHT22;51813;40.666;16.602;2022-11-25T09:59:06;17.30;58.00
65231;DHT22;51813;40.666;16.602;2022-11-25T10:02:09;17.40;58.30
65231;DHT22;51813;40.666;16.602;2022-11-25T10:04:54;17.40;58.40
65231;DHT22;51813;40.666;16.602;2022-11-25T10:07:35;17.40;58.40
65231;DHT22;51813;40.666;16.602;2022-11-25T10:10:04;17.50;58.50
65231;DHT22;51813;40.666;16.602;2022-11-25T10:12:33;17.50;58.40
65231;DHT22;51813;40.666;16.602;2022-11-25T10:15:24;17.50;58.30
65231;DHT22;51813;40.666;16.602;2022-11-25T10:17:52;17.50;58.10
65231;DHT22;51813;40.666;16.602;2022-11-25T10:20:19;17.50;58.10
65231;DHT22;51813;40.666;16.602;2022-11-25T10:22:55;17.50;58.30
65231;DHT22;51813;40.666;16.602;2022-11-25T10:25:24;17.50;58.20
65231;DHT22;51813;40.666;16.602;2022-11-25T10:30:43;17.50;58.40
65231;DHT22;51813;40.666;16.602;2022-11-25T10:36:45;17.60;58.40
65231;DHT22;51813;40.666;16.602;2022-11-25T10:39:21;17.50;57.90
65231;DHT22;51813;40.666;16.602;2022-11-25T10:42:19;17.50;57.80
65231;DHT22;51813;40.666;16.602;2022-11-25T10:44:45;17.50;57.70
65231;DHT22;51813;40.666;16.602;2022-11-25T10:52:43;17.30;56.80
65231;DHT22;51813;40.666;16.602;2022-11-25T10:55:23;17.30;56.90
65231;DHT22;51813;40.666;16.602;2022-11-25T10:57:51;17.30;57.00
65231;DHT22;51813;40.666;16.602;2022-11-25T11:00:30;17.40;57.10
65231;DHT22;51813;40.666;16.602;2022-11-25T11:02:57;17.50;57.20
65231;DHT22;51813;40.666;16.602;2022-11-25T11:05:29;17.50;57.10
65231;DHT22;51813;40.666;16.602;2022-11-25T11:08:19;17.50;57.10
65231;DHT22;51813;40.666;16.602;2022-11-25T11:10:47;17.50;56.90
65231;DHT22;51813;40.666;16.602;2022-11-25T11:13:19;17.60;56.80
65231;DHT22;51813;40.666;16.602;2022-11-25T11:15:47;17.60;56.80
65231;DHT22;51813;40.666;16.602;2022-11-25T11:18:25;17.70;56.80
65231;DHT22;51813;40.666;16.602;2022-11-25T11:20:59;17.60;56.90
65231;DHT22;51813;40.666;16.602;2022-11-25T11:23:26;17.50;56.00
65231;DHT22;51813;40.666;16.602;2022-11-25T11:26:03;17.50;54.30
65231;DHT22;51813;40.666;16.602;2022-11-25T11:30:59;17.40;51.10
65231;DHT22;51813;40.666;16.602;2022-11-25T11:47:07;17.40;49.30
65231;DHT22;51813;40.666;16.602;2022-11-25T11:50:00;17.40;49.40
65231;DHT22;51813;40.666;16.602;2022-11-25T11:52:51;17.30;49.50
65231;DHT22;51813;40.666;16.602;2022-11-25T12:01:28;17.40;47.00
65231;DHT22;51813;40.666;16.602;2022-11-25T12:04:02;17.40;47.50
65231;DHT22;51813;40.666;16.602;2022-11-25T12:06:35;17.40;47.50
65231;DHT22;51813;40.666;16.602;2022-11-25T12:09:12;17.40;47.60
65231;DHT22;51813;40.666;16.602;2022-11-25T12:11:42;17.30;47.70
65231;DHT22;51813;40.666;16.602;2022-11-25T12:16:58;17.30;48.10
65231;DHT22;51813;40.666;16.602;2022-11-25T12:19:55;17.40;48.90
65231;DHT22;51813;40.666;16.602;2022-11-25T12:22:37;17.40;49.10
65231;DHT22;51813;40.666;16.602;2022-11-25T12:25:23;17.40;49.40
65231;DHT22;51813;40.666;16.602;2022-11-25T12:28:17;17.50;49.70
65231;DHT22;51813;40.666;16.602;2022-11-25T12:34:10;17.50;50.40
65231;DHT22;51813;40.666;16.602;2022-11-25T12:36:39;17.50;50.60
65231;DHT22;51813;40.666;16.602;2022-11-25T12:39:27;17.60;50.80
65231;DHT22;51813;40.666;16.602;2022-11-25T12:42:02;17.50;51.00
65231;DHT22;51813;40.666;16.602;2022-11-25T12:47:12;17.50;51.40
65231;DHT22;51813;40.666;16.602;2022-11-25T12:49:47;17.50;51.60
65231;DHT22;51813;40.666;16.602;2022-11-25T12:52:43;17.50;51.70
65231;DHT22;51813;40.666;16.602;2022-11-25T12:55:25;17.50;51.90
65231;DHT22;51813;40.666;16.602;2022-11-25T12:58:33;17.50;52.20
65231;DHT22;51813;40.666;16.602;2022-11-25T13:04:18;17.50;52.50
65231;DHT22;51813;40.666;16.602;2022-11-25T13:07:11;17.40;52.60
65231;DHT22;51813;40.666;16.602;2022-11-25T13:15:30;17.50;52.80
65231;DHT22;51813;40.666;16.602;2022-11-25T13:18:06;17.50;52.90
65231;DHT22;51813;40.666;16.602;2022-11-25T13:20:35;17.50;53.10
65231;DHT22;51813;40.666;16.602;2022-11-25T13:25:43;17.50;53.80
65231;DHT22;51813;40.666;16.602;2022-11-25T13:28:30;17.50;54.00
65231;DHT22;51813;40.666;16.602;2022-11-25T13:36:20;17.40;54.30
65231;DHT22;51813;40.666;16.602;2022-11-25T13:44:04;17.40;54.30
65231;DHT22;51813;40.666;16.602;2022-11-25T13:46:50;17.40;54.40
65231;DHT22;51813;40.666;16.602;2022-11-25T13:49:24;17.50;54.50
65231;DHT22;51813;40.666;16.602;2022-11-25T13:51:53;17.40;54.70
65231;DHT22;51813;40.666;16.602;2022-11-25T13:54:25;17.40;54.70
65231;DHT22;51813;40.666;16.602;2022-11-25T13:57:25;17.40;54.70
65231;DHT22;51813;40.666;16.602;2022-11-25T13:59:54;17.40;54.70
65231;DHT22;51813;40.666;16.602;2022-11-25T14:14:04;17.50;55.00
65231;DHT22;51813;40.666;16.602;2022-11-25T14:19:15;17.40;55.00
65231;DHT22;51813;40.666;16.602;2022-11-25T14:24:48;17.50;54.90
65231;DHT22;51813;40.666;16.602;2022-11-25T14:27:18;17.50;54.80
65231;DHT22;51813;40.666;16.602;2022-11-25T14:32:23;17.50;54.80
65231;DHT22;51813;40.666;16.602;2022-11-25T14:35:43;17.60;54.90
65231;DHT22;51813;40.666;16.602;2022-11-25T14:38:02;17.60;54.90
65231;DHT22;51813;40.666;16.602;2022-11-25T14:40:35;17.60;55.60
65231;DHT22;51813;40.666;16.602;2022-11-25T14:43:07;17.60;54.90
65231;DHT22;51813;40.666;16.602;2022-11-25T14:45:35;17.70;54.90
65231;DHT22;51813;40.666;16.602;2022-11-25T14:50:40;17.70;54.80
65231;DHT22;51813;40.666;16.602;2022-11-25T14:53:07;17.70;54.80
65231;DHT22;51813;40.666;16.602;2022-11-25T14:55:34;17.80;54.50
65231;DHT22;51813;40.666;16.602;2022-11-25T14:58:00;17.90;54.30
65231;DHT22;51813;40.666;16.602;2022-11-25T15:00:26;17.90;54.40
65231;DHT22;51813;40.666;16.602;2022-11-25T15:02:53;18.00;54.60
65231;DHT22;51813;40.666;16.602;2022-11-25T15:05:25;18.00;54.70
65231;DHT22;51813;40.666;16.602;2022-11-25T15:08:09;18.00;55.00
65231;DHT22;51813;40.666;16.602;2022-11-25T15:13:42;18.00;54.80
65231;DHT22;51813;40.666;16.602;2022-11-25T15:16:21;18.00;54.60
65231;DHT22;51813;40.666;16.602;2022-11-25T15:18:58;18.00;54.60
65231;DHT22;51813;40.666;16.602;2022-11-25T15:21:38;17.90;54.00
65231;DHT22;51813;40.666;16.602;2022-11-25T15:24:05;17.90;54.00
65231;DHT22;51813;40.666;16.602;2022-11-25T15:26:33;17.90;54.00
65231;DHT22;51813;40.666;16.602;2022-11-25T15:29:11;18.10;53.50
65231;DHT22;51813;40.666;16.602;2022-11-25T15:31:38;18.20;53.30
65231;DHT22;51813;40.666;16.602;2022-11-25T15:34:09;18.20;53.30
65231;DHT22;51813;40.666;16.602;2022-11-25T15:36:36;18.20;52.90
65231;DHT22;51813;40.666;16.602;2022-11-25T15:41:50;18.10;52.90
65231;DHT22;51813;40.666;16.602;2022-11-25T15:46:51;18.10;52.80
65231;DHT22;51813;40.666;16.602;2022-11-25T15:49:17;18.10;52.70
65231;DHT22;51813;40.666;16.602;2022-11-25T15:51:58;18.10;52.80
65231;DHT22;51813;40.666;16.602;2022-11-25T15:54:37;18.10;53.00
65231;DHT22;51813;40.666;16.602;2022-11-25T15:57:19;18.10;52.70
65231;DHT22;51813;40.666;16.602;2022-11-25T15:59:49;18.00;52.40
65231;DHT22;51813;40.666;16.602;2022-11-25T16:02:35;18.00;52.80
65231;DHT22;51813;40.666;16.602;2022-11-25T16:10:23;18.00;52.90
65231;DHT22;51813;40.666;16.602;2022-11-25T16:16:25;18.00;53.30
65231;DHT22;51813;40.666;16.602;2022-11-25T16:31:50;18.00;53.50
65231;DHT22;51813;40.666;16.602;2022-11-25T16:34:20;18.00;53.50
65231;DHT22;51813;40.666;16.602;2022-11-25T16:36:46;18.00;53.40
65231;DHT22;51813;40.666;16.602;2022-11-25T16:39:12;18.10;53.30
65231;DHT22;51813;40.666;16.602;2022-11-25T16:41:39;18.10;53.10
65231;DHT22;51813;40.666;16.602;2022-11-25T16:44:19;18.10;53.20
65231;DHT22;51813;40.666;16.602;2022-11-25T16:46:46;18.10;53.10
65231;DHT22;51813;40.666;16.602;2022-11-25T16:49:13;18.10;53.20
65231;DHT22;51813;40.666;16.602;2022-11-25T16:51:40;18.10;53.20
65231;DHT22;51813;40.666;16.602;2022-11-25T16:54:06;18.10;53.00
65231;DHT22;51813;40.666;16.602;2022-11-25T16:56:33;18.00;52.60
65231;DHT22;51813;40.666;16.602;2022-11-25T16:59:00;18.00;52.70
65231;DHT22;51813;40.666;16.602;2022-11-25T17:01:28;18.00;52.00
65231;DHT22;51813;40.666;16.602;2022-11-25T17:03:55;18.00;52.40
65231;DHT22;51813;40.666;16.602;2022-11-25T17:06:26;18.00;52.40
65231;DHT22;51813;40.666;16.602;2022-11-25T17:08:53;18.00;52.10
65231;DHT22;51813;40.666;16.602;2022-11-25T17:11:29;18.00;51.90
65231;DHT22;51813;40.666;16.602;2022-11-25T17:13:59;18.10;51.80
65231;DHT22;51813;40.666;16.602;2022-11-25T17:16:27;18.20;51.60
65231;DHT22;51813;40.666;16.602;2022-11-25T17:18:55;18.20;51.80
65231;DHT22;51813;40.666;16.602;2022-11-25T17:21:21;18.10;52.10
65231;DHT22;51813;40.666;16.602;2022-11-25T17:23:53;18.10;52.30
65231;DHT22;51813;40.666;16.602;2022-11-25T17:26:35;18.10;52.50
65231;DHT22;51813;40.666;16.602;2022-11-25T17:29:04;18.10;52.90
65231;DHT22;51813;40.666;16.602;2022-11-25T17:31:32;18.10;53.20
65231;DHT22;51813;40.666;16.602;2022-11-25T17:33:58;18.00;52.90
65231;DHT22;51813;40.666;16.602;2022-11-25T17:36:24;18.00;52.90
65231;DHT22;51813;40.666;16.602;2022-11-25T17:38:51;18.00;53.00
65231;DHT22;51813;40.666;16.602;2022-11-25T17:41:21;18.10;53.20
65231;DHT22;51813;40.666;16.602;2022-11-25T17:43:50;18.10;53.30
65231;DHT22;51813;40.666;16.602;2022-11-25T17:46:16;18.10;53.10